sensor_id;sensor_type;location;lat;lon;timestamp;P1;durP1;ratioP1;P2;durP2;ratioP2
66609;SDS011;53468;48.276;14.416;2022-12-28T01:56:09;9.00;;;4.05;;
66609;SDS011;53468;48.276;14.416;2022-12-28T02:02:32;4.78;;;3.20;;
66609;SDS011;53468;48.276;14.416;2022-12-28T02:08:42;6.68;;;3.53;;
66609;SDS011;53468;48.276;14.416;2022-12-28T03:00:43;6.55;;;3.55;;
66609;SDS011;53468;48.276;14.416;2022-12-28T05:44:23;8.27;;;4.32;;
66609;SDS011;53468;48.276;14.416;2022-12-28T06:48:36;14.30;;;3.53;;
66609;SDS011;53468;48.276;14.416;2022-12-28T06:54:30;8.23;;;4.25;;
66609;SDS011;53468;48.276;14.416;2022-12-28T07:06:48;6.70;;;3.58;;
66609;SDS011;53468;48.276;14.416;2022-12-28T07:12:44;7.93;;;3.65;;
66609;SDS011;53468;48.276;14.416;2022-12-28T07:25:27;6.25;;;3.35;;
66609;SDS011;53468;48.276;14.416;2022-12-28T07:31:37;7.07;;;3.88;;
66609;SDS011;53468;48.276;14.416;2022-12-28T07:37:37;6.72;;;4.18;;
66609;SDS011;53468;48.276;14.416;2022-12-28T07:50:40;10.48;;;5.35;;
66609;SDS011;53468;48.276;14.416;2022-12-28T08:10:22;7.88;;;4.47;;
66609;SDS011;53468;48.276;14.416;2022-12-28T08:23:01;9.27;;;5.47;;
66609;SDS011;53468;48.276;14.416;2022-12-28T08:29:36;9.68;;;4.38;;
66609;SDS011;53468;48.276;14.416;2022-12-28T08:48:53;14.55;;;5.18;;
66609;SDS011;53468;48.276;14.416;2022-12-28T08:54:31;8.15;;;4.88;;
66609;SDS011;53468;48.276;14.416;2022-12-28T10:13:18;9.15;;;3.92;;
66609;SDS011;53468;48.276;14.416;2022-12-28T10:38:32;9.20;;;4.07;;
66609;SDS011;53468;48.276;14.416;2022-12-28T10:44:15;6.30;;;3.80;;
66609;SDS011;53468;48.276;14.416;2022-12-28T10:49:51;6.93;;;3.65;;
66609;SDS011;53468;48.276;14.416;2022-12-28T10:55:29;7.60;;;4.78;;
66609;SDS011;53468;48.276;14.416;2022-12-28T11:01:05;9.20;;;4.78;;
66609;SDS011;53468;48.276;14.416;2022-12-28T11:06:52;11.95;;;4.35;;
66609;SDS011;53468;48.276;14.416;2022-12-28T11:12:28;8.82;;;3.45;;
66609;SDS011;53468;48.276;14.416;2022-12-28T11:18:10;7.40;;;3.47;;
66609;SDS011;53468;48.276;14.416;2022-12-28T11:23:46;6.38;;;3.75;;
66609;SDS011;53468;48.276;14.416;2022-12-28T11:29:21;6.55;;;3.55;;
66609;SDS011;53468;48.276;14.416;2022-12-28T11:34:54;6.32;;;3.20;;
66609;SDS011;53468;48.276;14.416;2022-12-28T11:46:53;7.03;;;3.30;;
66609;SDS011;53468;48.276;14.416;2022-12-28T11:52:33;5.90;;;3.00;;
66609;SDS011;53468;48.276;14.416;2022-12-28T12:10:32;9.40;;;3.80;;
66609;SDS011;53468;48.276;14.416;2022-12-28T12:16:19;10.38;;;3.88;;
66609;SDS011;53468;48.276;14.416;2022-12-28T12:22:05;8.27;;;3.92;;
66609;SDS011;53468;48.276;14.416;2022-12-28T12:27:49;5.93;;;3.38;;
66609;SDS011;53468;48.276;14.416;2022-12-28T12:33:49;5.15;;;3.30;;
66609;SDS011;53468;48.276;14.416;2022-12-28T12:52:36;7.10;;;3.78;;
66609;SDS011;53468;48.276;14.416;2022-12-28T12:58:39;5.20;;;3.13;;
66609;SDS011;53468;48.276;14.416;2022-12-28T13:10:39;7.20;;;4.30;;
66609;SDS011;53468;48.276;14.416;2022-12-28T13:16:23;5.22;;;3.05;;
66609;SDS011;53468;48.276;14.416;2022-12-28T13:22:27;7.57;;;3.13;;
66609;SDS011;53468;48.276;14.416;2022-12-28T13:28:16;5.88;;;2.75;;
66609;SDS011;53468;48.276;14.416;2022-12-28T13:33:53;4.18;;;2.58;;
66609;SDS011;53468;48.276;14.416;2022-12-28T13:39:47;6.27;;;3.13;;
66609;SDS011;53468;48.276;14.416;2022-12-28T13:46:07;8.05;;;4.38;;
66609;SDS011;53468;48.276;14.416;2022-12-28T13:51:56;8.30;;;4.15;;
66609;SDS011;53468;48.276;14.416;2022-12-28T14:04:09;7.90;;;4.35;;
66609;SDS011;53468;48.276;14.416;2022-12-28T14:10:21;8.73;;;4.63;;
66609;SDS011;53468;48.276;14.416;2022-12-28T14:16:17;6.20;;;3.65;;
66609;SDS011;53468;48.276;14.416;2022-12-28T14:22:37;6.85;;;3.50;;
66609;SDS011;53468;48.276;14.416;2022-12-28T14:28:47;8.43;;;4.60;;
66609;SDS011;53468;48.276;14.416;2022-12-28T14:41:15;8.85;;;4.20;;
66609;SDS011;53468;48.276;14.416;2022-12-28T14:46:52;7.13;;;4.13;;
66609;SDS011;53468;48.276;14.416;2022-12-28T14:59:41;6.85;;;3.90;;
66609;SDS011;53468;48.276;14.416;2022-12-28T15:05:38;6.70;;;3.50;;
66609;SDS011;53468;48.276;14.416;2022-12-28T15:11:13;4.57;;;2.90;;
66609;SDS011;53468;48.276;14.416;2022-12-28T15:16:49;5.85;;;3.20;;
66609;SDS011;53468;48.276;14.416;2022-12-28T15:22:23;4.45;;;2.80;;
66609;SDS011;53468;48.276;14.416;2022-12-28T15:27:56;7.45;;;3.17;;
66609;SDS011;53468;48.276;14.416;2022-12-28T15:46:13;5.05;;;2.65;;
66609;SDS011;53468;48.276;14.416;2022-12-28T15:52:14;9.15;;;2.85;;
66609;SDS011;53468;48.276;14.416;2022-12-28T16:04:26;7.03;;;4.53;;
66609;SDS011;53468;48.276;14.416;2022-12-28T16:10:14;7.57;;;4.30;;
66609;SDS011;53468;48.276;14.416;2022-12-28T16:22:34;9.60;;;4.43;;
66609;SDS011;53468;48.276;14.416;2022-12-28T16:47:14;9.80;;;5.57;;
66609;SDS011;53468;48.276;14.416;2022-12-28T16:53:31;8.57;;;3.95;;
66609;SDS011;53468;48.276;14.416;2022-12-28T16:59:37;7.57;;;5.05;;
66609;SDS011;53468;48.276;14.416;2022-12-28T17:05:11;10.15;;;4.38;;
66609;SDS011;53468;48.276;14.416;2022-12-28T17:10:48;8.85;;;4.60;;
66609;SDS011;53468;48.276;14.416;2022-12-28T17:22:45;8.73;;;5.35;;
66609;SDS011;53468;48.276;14.416;2022-12-28T17:28:52;11.77;;;6.57;;
66609;SDS011;53468;48.276;14.416;2022-12-28T17:34:51;10.90;;;5.18;;
66609;SDS011;53468;48.276;14.416;2022-12-28T18:01:21;16.23;;;6.20;;
66609;SDS011;53468;48.276;14.416;2022-12-28T18:07:10;11.50;;;6.20;;
66609;SDS011;53468;48.276;14.416;2022-12-28T18:13:45;10.25;;;6.22;;
66609;SDS011;53468;48.276;14.416;2022-12-28T18:20:30;9.63;;;5.15;;
66609;SDS011;53468;48.276;14.416;2022-12-28T18:26:19;11.02;;;5.68;;
66609;SDS011;53468;48.276;14.416;2022-12-28T18:32:41;12.48;;;6.03;;
66609;SDS011;53468;48.276;14.416;2022-12-28T18:39:01;10.95;;;6.07;;
66609;SDS011;53468;48.276;14.416;2022-12-28T18:45:05;12.63;;;6.78;;
66609;SDS011;53468;48.276;14.416;2022-12-28T18:51:51;12.43;;;6.47;;
66609;SDS011;53468;48.276;14.416;2022-12-28T19:10:54;11.18;;;5.93;;
66609;SDS011;53468;48.276;14.416;2022-12-28T19:16:48;12.63;;;6.72;;
66609;SDS011;53468;48.276;14.416;2022-12-28T19:22:34;15.98;;;6.85;;
66609;SDS011;53468;48.276;14.416;2022-12-28T19:34:14;24.08;;;12.13;;
66609;SDS011;53468;48.276;14.416;2022-12-28T19:40:13;13.10;;;8.02;;
66609;SDS011;53468;48.276;14.416;2022-12-28T19:45:52;13.35;;;7.28;;
66609;SDS011;53468;48.276;14.416;2022-12-28T19:51:47;10.02;;;5.82;;
66609;SDS011;53468;48.276;14.416;2022-12-28T19:57:22;13.25;;;7.07;;
66609;SDS011;53468;48.276;14.416;2022-12-28T20:02:59;11.70;;;6.20;;
66609;SDS011;53468;48.276;14.416;2022-12-28T20:08:34;11.07;;;6.88;;
66609;SDS011;53468;48.276;14.416;2022-12-28T20:14:13;14.27;;;7.07;;
66609;SDS011;53468;48.276;14.416;2022-12-28T20:19:51;13.80;;;6.72;;
66609;SDS011;53468;48.276;14.416;2022-12-28T20:25:48;9.98;;;6.03;;
66609;SDS011;53468;48.276;14.416;2022-12-28T20:31:23;11.23;;;6.60;;
66609;SDS011;53468;48.276;14.416;2022-12-28T20:37:04;15.30;;;7.28;;
66609;SDS011;53468;48.276;14.416;2022-12-28T20:42:43;15.30;;;7.55;;
66609;SDS011;53468;48.276;14.416;2022-12-28T20:48:49;18.97;;;10.07;;
66609;SDS011;53468;48.276;14.416;2022-12-28T20:54:25;12.57;;;6.78;;
66609;SDS011;53468;48.276;14.416;2022-12-28T21:00:00;13.98;;;6.55;;
66609;SDS011;53468;48.276;14.416;2022-12-28T21:05:54;12.13;;;5.75;;
66609;SDS011;53468;48.276;14.416;2022-12-28T21:11:32;11.00;;;6.70;;
66609;SDS011;53468;48.276;14.416;2022-12-28T21:17:11;14.40;;;6.15;;
66609;SDS011;53468;48.276;14.416;2022-12-28T21:23:08;9.23;;;5.72;;
66609;SDS011;53468;48.276;14.416;2022-12-28T21:29:09;14.38;;;6.78;;
66609;SDS011;53468;48.276;14.416;2022-12-28T21:34:46;13.13;;;6.20;;
66609;SDS011;53468;48.276;14.416;2022-12-28T21:40:22;14.25;;;6.80;;
66609;SDS011;53468;48.276;14.416;2022-12-28T21:46:01;10.55;;;5.90;;
66609;SDS011;53468;48.276;14.416;2022-12-28T21:51:39;8.65;;;5.32;;
66609;SDS011;53468;48.276;14.416;2022-12-28T21:57:32;15.00;;;6.70;;
66609;SDS011;53468;48.276;14.416;2022-12-28T22:03:45;11.73;;;5.50;;
66609;SDS011;53468;48.276;14.416;2022-12-28T22:09:44;12.10;;;6.32;;
66609;SDS011;53468;48.276;14.416;2022-12-28T22:16:11;8.93;;;5.20;;
